Terminal Aerodrome Forecast
Issued by NWS Goodland, KS

Home | Current Version | Previous Version | Text Only | Print | Product List | Glossary On
Versions: 1 2 3 4 5 6 7 8 9 10 11 12 13 14 15 16 17 18 19 20
000
FTUS43 KGLD 152332
TAFGLD
TAF
KGLD 152332Z 1600/1624 34015G28KT P6SM OVC020
     FM160400 33014G24KT P6SM BKN070
     FM160600 33011KT P6SM SKC
     FM161800 VRB05KT P6SM SCT080=

USA.gov is the U.S. government's official web portal to all federal, state and local government web resources and services.